Edison, New Jersey
Current Conditions -  °F | °C
As of 10:15 PM on Thursday 27 Nov 2014 (Local Time) from KLDJ Reporting Station
Scattered Clouds Scattered Clouds  
Wind Chill: 30°   Ceiling: Unl
Heat Index: 37°   Visibility: 10mi
Dew Point: 29°   Wind: 10mph
Humidity: 72%   Direction: 310°NW
Pressure: 30.09"   Gusts: NA
Location:  40.53°N, 74.39°W
Report Text: KLDJ 280315Z AUTO 31009KT 10SM SCT050 03/M02 A3009 RMK AO2 T00281018
Loading
Personal Weather Stations






























Interactive Weather Map New forecast layout! Learn more

10-Day Weather Forecast

Advertisements
Track Severe Weather on mobile